createdAt,value
2018-04-27T00:00:45.476Z,963.66
2018-04-27T00:01:45.473Z,963.63
2018-04-27T00:02:45.465Z,963.64
2018-04-27T00:03:45.465Z,963.61
2018-04-27T00:04:45.459Z,963.60
2018-04-27T00:05:45.455Z,963.59
2018-04-27T00:06:45.471Z,963.58
2018-04-27T00:07:45.449Z,963.60
2018-04-27T00:08:45.445Z,963.60
2018-04-27T00:09:45.443Z,963.57
2018-04-27T00:10:45.439Z,963.56
2018-04-27T00:11:45.434Z,963.54
2018-04-27T00:12:45.430Z,963.59
2018-04-27T00:13:45.425Z,963.55
2018-04-27T00:14:45.422Z,963.60
2018-04-27T00:15:45.419Z,963.54
2018-04-27T00:16:45.417Z,963.59
2018-04-27T00:17:45.410Z,963.53
2018-04-27T00:18:45.417Z,963.54
2018-04-27T00:19:45.403Z,963.56
2018-04-27T00:20:45.399Z,963.57
2018-04-27T00:21:45.396Z,963.56
2018-04-27T00:22:45.391Z,963.54
2018-04-27T00:23:45.393Z,963.51
2018-04-27T00:24:45.387Z,963.52
2018-04-27T00:25:45.380Z,963.49
2018-04-27T00:26:45.376Z,963.44
2018-04-27T00:27:45.371Z,963.45
2018-04-27T00:28:45.366Z,963.46
2018-04-27T00:29:45.376Z,963.47
2018-04-27T00:30:45.359Z,963.48
2018-04-27T00:31:45.356Z,963.46
2018-04-27T00:32:45.360Z,963.46
2018-04-27T00:33:45.349Z,963.44
2018-04-27T00:34:45.345Z,963.46
2018-04-27T00:35:45.363Z,963.37
2018-04-27T00:36:45.336Z,963.45
2018-04-27T00:37:45.332Z,963.45
2018-04-27T00:38:45.328Z,963.44
2018-04-27T00:39:45.326Z,963.40
2018-04-27T00:40:45.322Z,963.40
2018-04-27T00:41:45.319Z,963.43
2018-04-27T00:42:45.312Z,963.40
2018-04-27T00:43:45.320Z,963.38
2018-04-27T00:44:45.309Z,963.37
2018-04-27T00:45:45.301Z,963.32
2018-04-27T00:46:45.298Z,963.32
2018-04-27T00:47:45.292Z,963.35
2018-04-27T00:48:45.289Z,963.32
2018-04-27T00:49:45.290Z,963.29
2018-04-27T00:50:45.289Z,963.30
2018-04-27T00:51:45.275Z,963.28
2018-04-27T00:52:46.099Z,963.28
2018-04-27T00:53:45.270Z,963.27
2018-04-27T00:54:45.262Z,963.28
2018-04-27T00:55:45.258Z,963.29
2018-04-27T00:56:45.254Z,963.31
2018-04-27T00:57:45.251Z,963.32
2018-04-27T00:58:45.246Z,963.33
2018-04-27T00:59:45.242Z,963.34
2018-04-27T01:00:45.237Z,963.35
2018-04-27T01:01:45.234Z,963.32
2018-04-27T01:02:45.238Z,963.35
2018-04-27T01:03:45.231Z,963.36
2018-04-27T01:04:45.221Z,963.32
2018-04-27T01:05:45.218Z,963.31
2018-04-27T01:06:45.216Z,963.30
2018-04-27T01:07:45.217Z,963.31
2018-04-27T01:08:45.205Z,963.31
2018-04-27T01:09:45.203Z,963.31
2018-04-27T01:10:45.196Z,963.31
2018-04-27T01:11:45.194Z,963.27
2018-04-27T01:12:45.188Z,963.30
2018-04-27T01:13:45.186Z,963.29
2018-04-27T01:14:45.180Z,963.33
2018-04-27T01:15:45.176Z,963.29
2018-04-27T01:16:45.174Z,963.29
2018-04-27T01:17:45.169Z,963.28
2018-04-27T01:18:45.163Z,963.27
2018-04-27T01:19:45.160Z,963.23
2018-04-27T01:20:45.158Z,963.20
2018-04-27T01:21:45.150Z,963.25
2018-04-27T01:22:45.153Z,963.19
2018-04-27T01:23:45.143Z,963.22
2018-04-27T01:24:45.137Z,963.27
2018-04-27T01:25:45.132Z,963.28
2018-04-27T01:26:45.130Z,963.27
2018-04-27T01:27:45.123Z,963.28
2018-04-27T01:28:45.120Z,963.25
2018-04-27T01:29:45.114Z,963.28
2018-04-27T01:30:45.109Z,963.25
2018-04-27T01:31:45.109Z,963.26
2018-04-27T01:32:45.102Z,963.29
2018-04-27T01:33:45.100Z,963.26
2018-04-27T01:34:45.091Z,963.29
2018-04-27T01:35:45.089Z,963.26
2018-04-27T01:36:45.082Z,963.30
2018-04-27T01:37:45.077Z,963.31
2018-04-27T01:38:45.077Z,963.30
2018-04-27T01:39:45.070Z,963.33
2018-04-27T01:40:45.065Z,963.31
2018-04-27T01:41:45.061Z,963.30
2018-04-27T01:42:45.056Z,963.35
2018-04-27T01:43:45.053Z,963.36
2018-04-27T01:44:45.048Z,963.36
2018-04-27T01:45:45.043Z,963.34
2018-04-27T01:46:45.038Z,963.36
2018-04-27T01:47:45.037Z,963.36
2018-04-27T01:48:45.033Z,963.35
2018-04-27T01:49:45.027Z,963.37
2018-04-27T01:50:45.023Z,963.36
2018-04-27T01:51:45.021Z,963.35
2018-04-27T01:52:45.014Z,963.36
2018-04-27T01:53:45.027Z,963.36
2018-04-27T01:54:45.003Z,963.32
2018-04-27T01:55:45.001Z,963.37
2018-04-27T01:56:45.007Z,963.30
2018-04-27T01:57:44.991Z,963.30
2018-04-27T01:58:44.987Z,963.30
2018-04-27T01:59:44.983Z,963.27
2018-04-27T02:00:44.979Z,963.28
2018-04-27T02:01:44.973Z,963.27
2018-04-27T02:02:44.969Z,963.27
2018-04-27T02:03:44.964Z,963.24
2018-04-27T02:04:44.961Z,963.24
2018-04-27T02:05:44.954Z,963.25
2018-04-27T02:06:44.950Z,963.24
2018-04-27T02:07:44.952Z,963.20
2018-04-27T02:08:44.943Z,963.26
2018-04-27T02:09:44.938Z,963.29
2018-04-27T02:10:44.935Z,963.31
2018-04-27T02:11:44.930Z,963.27
2018-04-27T02:12:44.940Z,963.29
2018-04-27T02:13:44.941Z,963.27
2018-04-27T02:14:44.923Z,963.28
2018-04-27T02:15:44.909Z,963.22
2018-04-27T02:16:44.905Z,963.21
2018-04-27T02:17:44.905Z,963.23
2018-04-27T02:18:44.897Z,963.22
2018-04-27T02:19:44.891Z,963.22
2018-04-27T02:20:44.891Z,963.19
2018-04-27T02:21:44.887Z,963.20
2018-04-27T02:22:44.881Z,963.19
2018-04-27T02:23:44.873Z,963.20
2018-04-27T02:24:44.869Z,963.16
2018-04-27T02:25:44.870Z,963.16
2018-04-27T02:26:44.858Z,963.15
2018-04-27T02:27:44.857Z,963.17
2018-04-27T02:28:44.850Z,963.13
2018-04-27T02:29:44.846Z,963.13
2018-04-27T02:30:44.844Z,963.12
2018-04-27T02:31:44.839Z,963.11
2018-04-27T02:32:44.832Z,963.12
2018-04-27T02:33:44.827Z,963.12
2018-04-27T02:34:44.822Z,963.06
2018-04-27T02:35:44.818Z,963.11
2018-04-27T02:36:44.814Z,963.06
2018-04-27T02:37:44.823Z,962.99
2018-04-27T02:38:44.804Z,962.96
2018-04-27T02:39:44.799Z,962.99
2018-04-27T02:40:44.795Z,962.98
2018-04-27T02:41:44.792Z,962.93
2018-04-27T02:42:44.783Z,962.94
2018-04-27T02:43:44.781Z,962.94
2018-04-27T02:44:44.776Z,962.93
2018-04-27T02:45:44.774Z,962.95
2018-04-27T02:46:44.766Z,962.95
2018-04-27T02:47:44.760Z,962.96
2018-04-27T02:48:44.757Z,962.94
2018-04-27T02:49:44.756Z,962.97
2018-04-27T02:50:44.755Z,962.99
2018-04-27T02:51:44.745Z,962.98
2018-04-27T02:52:44.740Z,963.00
2018-04-27T02:53:44.733Z,963.01
2018-04-27T02:54:44.731Z,962.95
2018-04-27T02:55:44.728Z,962.97
2018-04-27T02:56:44.721Z,962.93
2018-04-27T02:57:44.717Z,962.94
2018-04-27T02:58:44.717Z,962.95
2018-04-27T02:59:44.703Z,962.95
2018-04-27T03:00:44.704Z,962.97
2018-04-27T03:01:44.697Z,962.93
2018-04-27T03:02:44.692Z,962.94
2018-04-27T03:03:44.690Z,962.92
2018-04-27T03:04:44.686Z,962.94
2018-04-27T03:05:44.678Z,962.93
2018-04-27T03:06:44.684Z,962.92
2018-04-27T03:07:44.667Z,962.93
2018-04-27T03:08:44.668Z,962.90
2018-04-27T03:09:44.657Z,962.86
2018-04-27T03:10:44.654Z,962.89
2018-04-27T03:11:44.649Z,962.86
2018-04-27T03:12:44.656Z,962.86
2018-04-27T03:13:44.640Z,962.83
2018-04-27T03:14:44.634Z,962.83
2018-04-27T03:15:44.631Z,962.82
2018-04-27T03:16:44.628Z,962.87
2018-04-27T03:17:44.620Z,962.84
2018-04-27T03:18:44.631Z,962.87
2018-04-27T03:19:44.609Z,962.84
2018-04-27T03:20:44.611Z,962.82
2018-04-27T03:21:44.609Z,962.83
2018-04-27T03:22:44.601Z,962.83
2018-04-27T03:23:44.684Z,962.81
2018-04-27T03:24:44.604Z,962.82
2018-04-27T03:25:44.589Z,962.80
2018-04-27T03:26:44.578Z,962.85
2018-04-27T03:27:44.574Z,962.82
2018-04-27T03:28:44.572Z,962.81
2018-04-27T03:29:44.564Z,962.83
2018-04-27T03:30:44.557Z,962.77
2018-04-27T03:31:44.555Z,962.74
2018-04-27T03:32:44.554Z,962.71
2018-04-27T03:33:44.557Z,962.81
2018-04-27T03:34:44.539Z,962.80
2018-04-27T03:35:44.535Z,962.80
2018-04-27T03:36:44.530Z,962.78
2018-04-27T03:37:44.523Z,962.80
2018-04-27T03:38:44.520Z,962.77
2018-04-27T03:39:44.525Z,962.78
2018-04-27T03:40:44.512Z,962.76
2018-04-27T03:41:44.505Z,962.78
2018-04-27T03:42:44.511Z,962.76
2018-04-27T03:43:44.498Z,962.76
2018-04-27T03:44:44.492Z,962.76
2018-04-27T03:45:44.486Z,962.73
2018-04-27T03:46:44.483Z,962.75
2018-04-27T03:47:44.481Z,962.74
2018-04-27T03:48:44.473Z,962.73
2018-04-27T03:49:44.466Z,962.75
2018-04-27T03:50:44.460Z,962.70
2018-04-27T03:51:44.459Z,962.74
2018-04-27T03:52:44.451Z,962.71
2018-04-27T03:53:44.447Z,962.71
2018-04-27T03:54:44.445Z,962.63
2018-04-27T03:55:44.441Z,962.67
2018-04-27T03:56:44.432Z,962.65
2018-04-27T03:57:44.427Z,962.62
2018-04-27T03:58:44.422Z,962.65
2018-04-27T03:59:44.420Z,962.62
2018-04-27T04:00:44.412Z,962.66
2018-04-27T04:01:44.411Z,962.60
2018-04-27T04:02:44.403Z,962.56
2018-04-27T04:03:44.397Z,962.59
2018-04-27T04:04:44.392Z,962.61
2018-04-27T04:05:44.388Z,962.57
2018-04-27T04:06:44.383Z,962.59
2018-04-27T04:07:44.378Z,962.57
2018-04-27T04:08:44.372Z,962.57
2018-04-27T04:09:44.368Z,962.59
2018-04-27T04:10:44.363Z,962.53
2018-04-27T04:11:44.359Z,962.54
2018-04-27T04:12:44.356Z,962.53
2018-04-27T04:13:44.353Z,962.54
2018-04-27T04:14:44.343Z,962.52
2018-04-27T04:15:44.336Z,962.52
2018-04-27T04:16:44.334Z,962.57
2018-04-27T04:17:44.337Z,962.49
2018-04-27T04:18:44.325Z,962.53
2018-04-27T04:19:44.317Z,962.53
2018-04-27T04:20:44.366Z,962.52
2018-04-27T04:21:44.308Z,962.53
2018-04-27T04:22:44.309Z,962.52
2018-04-27T04:23:44.299Z,962.57
2018-04-27T04:24:44.293Z,962.53
2018-04-27T04:25:44.309Z,962.54
2018-04-27T04:26:44.283Z,962.52
2018-04-27T04:27:44.277Z,962.53
2018-04-27T04:28:44.274Z,962.51
2018-04-27T04:29:44.267Z,962.55
2018-04-27T04:30:44.266Z,962.47
2018-04-27T04:31:44.259Z,962.45
2018-04-27T04:32:44.262Z,962.44
2018-04-27T04:33:44.250Z,962.48
2018-04-27T04:34:44.250Z,962.52
2018-04-27T04:35:44.249Z,962.50
2018-04-27T04:36:44.236Z,962.43
2018-04-27T04:37:44.228Z,962.47
2018-04-27T04:38:44.227Z,962.45
2018-04-27T04:39:44.223Z,962.45
2018-04-27T04:40:44.215Z,962.44
2018-04-27T04:41:44.211Z,962.43
2018-04-27T04:42:44.222Z,962.45
2018-04-27T04:43:44.209Z,962.40
2018-04-27T04:44:44.196Z,962.49
2018-04-27T04:45:44.189Z,962.46
2018-04-27T04:46:44.185Z,962.45
2018-04-27T04:47:44.181Z,962.50
2018-04-27T04:48:44.173Z,962.45
2018-04-27T04:49:44.200Z,962.45
2018-04-27T04:50:44.166Z,962.53
2018-04-27T04:51:44.161Z,962.50
2018-04-27T04:52:44.265Z,962.55
2018-04-27T04:53:44.150Z,962.53
2018-04-27T04:54:44.162Z,962.52
2018-04-27T04:55:44.142Z,962.52
2018-04-27T04:56:44.137Z,962.58
2018-04-27T04:57:44.132Z,962.54
2018-04-27T04:58:44.125Z,962.53
2018-04-27T04:59:44.121Z,962.58
2018-04-27T05:00:44.121Z,962.53
2018-04-27T05:01:44.113Z,962.55
2018-04-27T05:02:44.265Z,962.55
2018-04-27T05:03:44.103Z,962.52
2018-04-27T05:04:44.099Z,962.56
2018-04-27T05:05:44.096Z,962.54
2018-04-27T05:06:44.088Z,962.53
2018-04-27T05:07:44.084Z,962.53
2018-04-27T05:08:44.080Z,962.48
2018-04-27T05:09:44.079Z,962.47
2018-04-27T05:10:44.082Z,962.46
2018-04-27T05:11:44.067Z,962.46
2018-04-27T05:12:44.062Z,962.45
2018-04-27T05:13:44.057Z,962.47
2018-04-27T05:14:44.052Z,962.52
2018-04-27T05:15:44.048Z,962.51
2018-04-27T05:16:44.044Z,962.54
2018-04-27T05:17:44.037Z,962.58
2018-04-27T05:18:44.049Z,962.56
2018-04-27T05:19:44.030Z,962.56
2018-04-27T05:20:44.028Z,962.55
2018-04-27T05:21:44.022Z,962.52
2018-04-27T05:22:44.021Z,962.50
2018-04-27T05:23:44.015Z,962.49
2018-04-27T05:24:44.008Z,962.47
2018-04-27T05:25:44.004Z,962.49
2018-04-27T05:26:44.000Z,962.53
2018-04-27T05:27:43.999Z,962.53
2018-04-27T05:28:43.991Z,962.53
2018-04-27T05:29:43.989Z,962.50
2018-04-27T05:30:43.992Z,962.48
2018-04-27T05:31:43.979Z,962.49
2018-04-27T05:32:43.974Z,962.48
2018-04-27T05:33:43.967Z,962.46
2018-04-27T05:34:43.966Z,962.47
2018-04-27T05:35:43.963Z,962.48
2018-04-27T05:36:43.963Z,962.49
2018-04-27T05:37:43.956Z,962.46
2018-04-27T05:38:43.953Z,962.43
2018-04-27T05:39:43.946Z,962.43
2018-04-27T05:40:43.946Z,962.41
2018-04-27T05:41:43.938Z,962.40
2018-04-27T05:42:43.934Z,962.35
2018-04-27T05:43:43.931Z,962.39
2018-04-27T05:44:43.928Z,962.36
2018-04-27T05:45:43.920Z,962.41
2018-04-27T05:46:43.918Z,962.40
2018-04-27T05:47:43.914Z,962.38
2018-04-27T05:48:43.913Z,962.38
2018-04-27T05:49:43.908Z,962.37
2018-04-27T05:50:43.906Z,962.39
2018-04-27T05:51:43.903Z,962.40
2018-04-27T05:52:43.898Z,962.36
2018-04-27T05:53:43.897Z,962.36
2018-04-27T05:54:43.891Z,962.36
2018-04-27T05:55:43.885Z,962.34
2018-04-27T05:56:43.948Z,962.35
2018-04-27T05:57:43.880Z,962.30
2018-04-27T05:58:43.877Z,962.27
2018-04-27T05:59:43.877Z,962.29
2018-04-27T06:00:43.872Z,962.28
2018-04-27T06:01:43.868Z,962.25
2018-04-27T06:02:43.864Z,962.26
2018-04-27T06:03:43.862Z,962.26
2018-04-27T06:04:43.862Z,962.24
2018-04-27T06:05:43.855Z,962.26
2018-04-27T06:06:43.854Z,962.29
2018-04-27T06:07:43.850Z,962.25
2018-04-27T06:08:43.847Z,962.28
2018-04-27T06:09:43.844Z,962.26
2018-04-27T06:10:43.842Z,962.29
2018-04-27T06:11:43.839Z,962.30
2018-04-27T06:12:43.836Z,962.27
2018-04-27T06:13:43.832Z,962.29
2018-04-27T06:14:43.829Z,962.29
2018-04-27T06:15:43.827Z,962.30
2018-04-27T06:16:43.823Z,962.34
2018-04-27T06:17:43.821Z,962.33
2018-04-27T06:18:43.818Z,962.29
2018-04-27T06:19:43.820Z,962.33
2018-04-27T06:20:43.812Z,962.40
2018-04-27T06:21:43.809Z,962.39
2018-04-27T06:22:43.808Z,962.41
2018-04-27T06:23:43.807Z,962.38
2018-04-27T06:24:43.803Z,962.35
2018-04-27T06:25:43.860Z,962.32
2018-04-27T06:26:43.798Z,962.35
2018-04-27T06:27:43.799Z,962.35
2018-04-27T06:28:43.793Z,962.31
2018-04-27T06:29:43.792Z,962.31
2018-04-27T06:30:43.788Z,962.35
2018-04-27T06:31:43.832Z,962.35
2018-04-27T06:32:43.802Z,962.42
2018-04-27T06:33:43.784Z,962.39
2018-04-27T06:34:43.780Z,962.35
2018-04-27T06:35:43.781Z,962.34
2018-04-27T06:36:43.774Z,962.35
2018-04-27T06:37:43.772Z,962.36
2018-04-27T06:38:43.778Z,962.31
2018-04-27T06:39:43.771Z,962.34
2018-04-27T06:40:43.769Z,962.38
2018-04-27T06:41:43.767Z,962.38
2018-04-27T06:42:43.766Z,962.39
2018-04-27T06:43:43.767Z,962.44
2018-04-27T06:44:43.772Z,962.41
2018-04-27T06:45:43.773Z,962.39
2018-04-27T06:46:43.767Z,962.29
2018-04-27T06:47:43.772Z,962.37
2018-04-27T06:48:43.769Z,962.35
2018-04-27T06:49:43.772Z,962.35
2018-04-27T06:50:43.777Z,962.33
2018-04-27T06:51:43.788Z,962.33
2018-04-27T06:52:43.774Z,962.32
2018-04-27T06:53:43.780Z,962.41
2018-04-27T06:54:43.781Z,962.44
2018-04-27T06:55:43.778Z,962.41
2018-04-27T06:56:43.789Z,962.39
2018-04-27T06:57:43.788Z,962.39
2018-04-27T06:58:43.788Z,962.43
2018-04-27T06:59:43.808Z,962.37
2018-04-27T07:00:43.795Z,962.29
2018-04-27T07:01:43.796Z,962.30
2018-04-27T07:02:43.802Z,962.34
2018-04-27T07:03:43.810Z,962.32
2018-04-27T07:04:43.808Z,962.32
2018-04-27T07:05:43.811Z,962.35
2018-04-27T07:06:43.817Z,962.30
2018-04-27T07:07:43.822Z,962.31
2018-04-27T07:08:43.823Z,962.33
2018-04-27T07:09:43.829Z,962.33
2018-04-27T07:10:43.832Z,962.35
2018-04-27T07:11:43.836Z,962.33
2018-04-27T07:12:43.845Z,962.33
2018-04-27T07:13:43.852Z,962.34
2018-04-27T07:14:43.849Z,962.34
2018-04-27T07:15:43.855Z,962.34
2018-04-27T07:16:43.858Z,962.31
2018-04-27T07:17:43.862Z,962.30
2018-04-27T07:18:43.866Z,962.27
2018-04-27T07:19:43.871Z,962.23
2018-04-27T07:20:43.875Z,962.26
2018-04-27T07:21:43.879Z,962.23
2018-04-27T07:22:43.902Z,962.20
2018-04-27T07:23:43.890Z,962.24
2018-04-27T07:24:43.894Z,962.19
2018-04-27T07:25:43.903Z,962.25
2018-04-27T07:26:43.922Z,962.22
2018-04-27T07:27:43.907Z,962.15
2018-04-27T07:28:43.913Z,962.20
2018-04-27T07:29:43.919Z,962.20
2018-04-27T07:30:43.921Z,962.18
2018-04-27T07:31:43.931Z,962.17
2018-04-27T07:32:43.963Z,962.18
2018-04-27T07:33:43.998Z,962.15
2018-04-27T07:34:43.944Z,962.08
2018-04-27T07:35:43.948Z,962.11
2018-04-27T07:36:43.952Z,962.09
2018-04-27T07:37:43.956Z,962.05
2018-04-27T07:38:43.963Z,962.05
2018-04-27T07:39:44.033Z,962.04
2018-04-27T07:40:43.973Z,962.03
2018-04-27T07:41:43.977Z,962.02
2018-04-27T07:42:43.987Z,962.02
2018-04-27T07:43:43.988Z,962.01
2018-04-27T07:44:43.994Z,961.98
2018-04-27T07:45:43.996Z,962.01
2018-04-27T07:46:44.004Z,961.94
2018-04-27T07:47:44.012Z,961.98
2018-04-27T07:48:44.015Z,961.97
2018-04-27T07:49:44.020Z,961.92
2018-04-27T07:50:44.027Z,961.97
2018-04-27T07:51:44.052Z,961.96
2018-04-27T07:52:44.035Z,961.97
2018-04-27T07:53:44.040Z,961.99
2018-04-27T07:54:44.043Z,962.00
2018-04-27T07:55:44.048Z,961.96
2018-04-27T07:56:44.070Z,961.96
2018-04-27T07:57:44.060Z,961.93
2018-04-27T07:58:44.063Z,961.93
2018-04-27T07:59:44.069Z,961.89
2018-04-27T08:00:44.076Z,961.85
2018-04-27T08:01:44.101Z,961.87
2018-04-27T08:02:44.088Z,961.87
2018-04-27T08:03:44.099Z,961.82
2018-04-27T08:04:44.095Z,961.83
2018-04-27T08:05:44.097Z,961.89
2018-04-27T08:06:44.105Z,961.80
2018-04-27T08:07:44.110Z,961.88
2018-04-27T08:08:44.132Z,961.89
2018-04-27T08:09:44.117Z,961.90
2018-04-27T08:10:44.124Z,961.89
2018-04-27T08:11:44.130Z,961.94
2018-04-27T08:12:44.134Z,961.96
2018-04-27T08:13:44.151Z,961.94
2018-04-27T08:14:44.145Z,961.94
2018-04-27T08:15:44.152Z,961.96
2018-04-27T08:16:44.153Z,961.92
2018-04-27T08:17:44.157Z,961.91
2018-04-27T08:18:44.209Z,961.89
2018-04-27T08:19:44.168Z,961.85
2018-04-27T08:20:44.172Z,961.85
2018-04-27T08:21:44.181Z,961.85
2018-04-27T08:22:44.189Z,961.82
2018-04-27T08:23:44.204Z,961.82
2018-04-27T08:24:44.192Z,961.84
2018-04-27T08:25:44.213Z,961.81
2018-04-27T08:26:44.208Z,961.78
2018-04-27T08:27:44.210Z,961.81
2018-04-27T08:28:44.213Z,961.84
2018-04-27T08:29:44.216Z,961.79
2018-04-27T08:30:44.233Z,961.78
2018-04-27T08:31:44.227Z,961.77
2018-04-27T08:32:44.231Z,961.78
2018-04-27T08:33:44.235Z,961.78
2018-04-27T08:34:44.242Z,961.75
2018-04-27T08:35:44.256Z,961.79
2018-04-27T08:36:44.275Z,961.75
2018-04-27T08:37:44.259Z,961.76
2018-04-27T08:38:44.275Z,961.73
2018-04-27T08:39:44.269Z,961.75
2018-04-27T08:40:44.268Z,961.80
2018-04-27T08:41:44.275Z,961.69
2018-04-27T08:42:44.282Z,961.69
2018-04-27T08:43:44.339Z,961.63
2018-04-27T08:44:44.304Z,961.60
2018-04-27T08:45:44.291Z,961.56
2018-04-27T08:46:44.300Z,961.49
2018-04-27T08:47:44.305Z,961.52
2018-04-27T08:48:44.308Z,961.49
2018-04-27T08:49:44.312Z,961.54
2018-04-27T08:50:44.315Z,961.51
2018-04-27T08:51:44.347Z,961.49
2018-04-27T08:52:44.326Z,961.47
2018-04-27T08:53:44.335Z,961.46
2018-04-27T08:54:44.337Z,961.46
2018-04-27T08:55:44.338Z,961.42
2018-04-27T08:56:44.359Z,961.43
2018-04-27T08:57:44.348Z,961.41
2018-04-27T08:58:44.355Z,961.47
2018-04-27T08:59:44.360Z,961.50
2018-04-27T09:00:44.362Z,961.50
2018-04-27T09:01:44.367Z,961.48
2018-04-27T09:02:44.386Z,961.49
2018-04-27T09:03:44.381Z,961.53
2018-04-27T09:04:44.390Z,961.47
2018-04-27T09:05:44.414Z,961.42
2018-04-27T09:06:44.395Z,961.37
2018-04-27T09:07:44.398Z,961.42
2018-04-27T09:08:44.413Z,961.42
2018-04-27T09:09:45.221Z,961.32
2018-04-27T09:10:44.409Z,961.37
2018-04-27T09:11:44.414Z,961.40
2018-04-27T09:12:44.453Z,961.39
2018-04-27T09:13:44.422Z,961.36
2018-04-27T09:14:44.429Z,961.37
2018-04-27T09:15:44.433Z,961.42
2018-04-27T09:16:44.437Z,961.31
2018-04-27T09:17:44.443Z,961.36
2018-04-27T09:18:44.449Z,961.32
2018-04-27T09:19:44.455Z,961.31
2018-04-27T09:20:44.457Z,961.39
2018-04-27T09:21:44.466Z,961.30
2018-04-27T09:22:44.467Z,961.28
2018-04-27T09:23:44.477Z,961.28
2018-04-27T09:24:44.476Z,961.25
2018-04-27T09:25:44.542Z,961.23
2018-04-27T09:26:44.491Z,961.23
2018-04-27T09:27:44.553Z,961.21
2018-04-27T09:28:44.501Z,961.18
2018-04-27T09:29:44.500Z,961.20
2018-04-27T09:30:44.505Z,961.18
2018-04-27T09:31:44.510Z,961.16
2018-04-27T09:32:44.520Z,961.14
2018-04-27T09:33:44.523Z,961.16
2018-04-27T09:34:44.524Z,961.15
2018-04-27T09:35:44.538Z,961.17
2018-04-27T09:36:44.540Z,961.12
2018-04-27T09:37:44.552Z,961.13
2018-04-27T09:38:44.546Z,961.11
2018-04-27T09:39:44.548Z,961.15
2018-04-27T09:40:44.558Z,961.04
2018-04-27T09:41:44.560Z,961.08
2018-04-27T09:42:44.563Z,961.08
2018-04-27T09:43:44.569Z,961.04
2018-04-27T09:44:44.575Z,961.03
2018-04-27T09:45:44.578Z,961.04
2018-04-27T09:46:44.584Z,961.09
2018-04-27T09:47:44.589Z,960.99
2018-04-27T09:48:44.593Z,961.05
2018-04-27T09:49:44.609Z,961.03
2018-04-27T09:50:44.614Z,961.05
2018-04-27T09:51:44.622Z,961.02
2018-04-27T09:52:44.612Z,961.05
2018-04-27T09:53:44.615Z,961.01
2018-04-27T09:54:44.621Z,961.00
2018-04-27T09:55:44.629Z,960.96
2018-04-27T09:56:44.631Z,960.92
2018-04-27T09:57:44.631Z,960.95
2018-04-27T09:58:44.640Z,960.96
2018-04-27T09:59:44.645Z,960.88
2018-04-27T10:00:44.653Z,960.89
2018-04-27T10:01:44.670Z,960.80
2018-04-27T10:02:44.666Z,960.85
2018-04-27T10:03:44.662Z,960.78
2018-04-27T10:04:44.668Z,960.83
2018-04-27T10:05:44.719Z,960.74
2018-04-27T10:06:44.677Z,960.78
2018-04-27T10:07:44.686Z,960.76
2018-04-27T10:08:44.686Z,960.74
2018-04-27T10:09:44.694Z,960.70
2018-04-27T10:10:44.698Z,960.71
2018-04-27T10:11:44.712Z,960.65
2018-04-27T10:12:44.785Z,960.66
2018-04-27T10:13:44.711Z,960.65
2018-04-27T10:14:44.715Z,960.65
2018-04-27T10:15:44.727Z,960.65
2018-04-27T10:16:44.730Z,960.64
2018-04-27T10:17:44.732Z,960.62
2018-04-27T10:18:44.739Z,960.65
2018-04-27T10:19:44.739Z,960.67
2018-04-27T10:20:44.749Z,960.61
2018-04-27T10:21:44.750Z,960.51
2018-04-27T10:22:44.759Z,960.53
2018-04-27T10:23:44.757Z,960.51
2018-04-27T10:24:44.763Z,960.50
2018-04-27T10:25:44.793Z,960.48
2018-04-27T10:26:44.778Z,960.48
2018-04-27T10:27:44.778Z,960.52
2018-04-27T10:28:44.784Z,960.52
2018-04-27T10:29:44.788Z,960.47
2018-04-27T10:30:44.792Z,960.53
2018-04-27T10:31:44.796Z,960.49
2018-04-27T10:32:44.801Z,960.44
2018-04-27T10:33:44.806Z,960.42
2018-04-27T10:34:44.813Z,960.36
2018-04-27T10:35:44.826Z,960.34
2018-04-27T10:36:44.822Z,960.29
2018-04-27T10:37:44.824Z,960.31
2018-04-27T10:38:44.832Z,960.33
2018-04-27T10:39:44.830Z,960.31
2018-04-27T10:40:44.840Z,960.29
2018-04-27T10:41:44.854Z,960.27
2018-04-27T10:42:44.847Z,960.22
2018-04-27T10:43:44.852Z,960.27
2018-04-27T10:44:44.856Z,960.22
2018-04-27T10:45:44.861Z,960.13
2018-04-27T10:46:44.867Z,960.17
2018-04-27T10:47:44.868Z,960.14
2018-04-27T10:48:44.877Z,960.14
2018-04-27T10:49:44.882Z,960.14
2018-04-27T10:50:44.883Z,960.10
2018-04-27T10:51:44.887Z,960.07
2018-04-27T10:52:44.896Z,959.99
2018-04-27T10:53:44.896Z,959.96
2018-04-27T10:54:44.902Z,959.98
2018-04-27T10:55:44.907Z,960.00
2018-04-27T10:56:44.912Z,959.99
2018-04-27T10:57:44.936Z,959.98
2018-04-27T10:58:44.933Z,960.00
2018-04-27T10:59:44.930Z,960.00
2018-04-27T11:00:44.956Z,959.96
2018-04-27T11:01:44.941Z,959.97
2018-04-27T11:02:44.944Z,959.95
2018-04-27T11:03:44.951Z,960.00
2018-04-27T11:04:44.965Z,959.95
2018-04-27T11:05:44.955Z,959.97
2018-04-27T11:06:44.975Z,959.97
2018-04-27T11:07:44.980Z,959.99
2018-04-27T11:08:44.972Z,959.98
2018-04-27T11:09:45.012Z,960.03
2018-04-27T11:10:44.984Z,959.97
2018-04-27T11:11:44.992Z,959.85
2018-04-27T11:12:44.993Z,959.83
2018-04-27T11:13:45.016Z,959.85
2018-04-27T11:14:45.003Z,959.80
2018-04-27T11:15:45.011Z,959.86
2018-04-27T11:16:45.588Z,959.86
2018-04-27T11:17:45.018Z,959.83
2018-04-27T11:18:45.026Z,959.88
2018-04-27T11:19:45.036Z,959.79
2018-04-27T11:20:45.040Z,959.77
2018-04-27T11:21:45.046Z,959.73
2018-04-27T11:22:45.047Z,959.76
2018-04-27T11:23:45.049Z,959.74
2018-04-27T11:24:45.057Z,959.77
2018-04-27T11:25:45.080Z,959.71
2018-04-27T11:26:45.078Z,959.64
2018-04-27T11:27:45.096Z,959.59
2018-04-27T11:28:45.141Z,959.58
2018-04-27T11:29:45.086Z,959.58
2018-04-27T11:30:45.127Z,959.55
2018-04-27T11:31:45.125Z,959.52
2018-04-27T11:32:45.156Z,959.52
2018-04-27T11:33:45.159Z,959.49
2018-04-27T11:34:45.122Z,959.50
2018-04-27T11:35:45.114Z,959.46
2018-04-27T11:36:45.312Z,959.48
2018-04-27T11:37:45.122Z,959.46
2018-04-27T11:38:45.129Z,959.42
2018-04-27T11:39:45.135Z,959.43
2018-04-27T11:40:45.140Z,959.43
2018-04-27T11:41:45.143Z,959.48
2018-04-27T11:42:45.159Z,959.44
2018-04-27T11:43:45.162Z,959.43
2018-04-27T11:44:45.161Z,959.41
2018-04-27T11:45:45.178Z,959.39
2018-04-27T11:46:45.178Z,959.33
2018-04-27T11:47:45.239Z,959.32
2018-04-27T11:48:45.187Z,959.27
2018-04-27T11:49:45.198Z,959.25
2018-04-27T11:50:45.207Z,959.25
2018-04-27T11:51:45.235Z,959.27
2018-04-27T11:52:45.272Z,959.26
2018-04-27T11:53:45.221Z,959.24
2018-04-27T11:54:45.231Z,959.20
2018-04-27T11:55:45.253Z,959.16
2018-04-27T11:56:45.223Z,959.16
2018-04-27T11:57:45.263Z,959.17
2018-04-27T11:58:45.237Z,959.20
2018-04-27T11:59:45.367Z,959.15
2018-04-27T12:00:45.240Z,959.15
2018-04-27T12:01:45.381Z,959.15
2018-04-27T12:02:45.268Z,959.20
2018-04-27T12:03:45.305Z,959.15
2018-04-27T12:04:45.277Z,959.11
2018-04-27T12:05:45.281Z,959.13
2018-04-27T12:06:45.276Z,959.06
2018-04-27T12:07:45.292Z,959.06
2018-04-27T12:08:45.286Z,959.10
2018-04-27T12:09:45.293Z,959.07
2018-04-27T12:10:45.417Z,959.17
2018-04-27T12:11:46.301Z,959.10
2018-04-27T12:12:45.333Z,959.07
2018-04-27T12:13:45.351Z,959.03
2018-04-27T12:14:45.333Z,959.11
2018-04-27T12:15:45.346Z,959.03
2018-04-27T12:16:45.327Z,959.02
2018-04-27T12:17:45.341Z,958.95
2018-04-27T12:18:45.361Z,958.95
2018-04-27T12:19:45.346Z,958.95
2018-04-27T12:20:45.360Z,959.00
2018-04-27T12:21:45.353Z,959.03
2018-04-27T12:22:45.380Z,958.97
2018-04-27T12:23:45.375Z,958.93
2018-04-27T12:24:45.415Z,958.95
2018-04-27T12:25:45.374Z,958.92
2018-04-27T12:26:45.398Z,958.89
2018-04-27T12:27:45.439Z,958.89
2018-04-27T12:28:45.394Z,958.87